Darstellungsparameter: Aktuell verwendete Einstellungen:
Skalierung der Graphiken ... ?
xyx+y,   Skalierungsfaktor:      Skalierung: Modus: x, Faktor: 1
Darstellungszeitraum ... ?
Vom - - bis: - -   Zeitraum: 09.04.2019 - 11.04.2019
Min/Max/Avg-Anzeige ... ?
Zeige MMA aktuell
Zeige MMA Monat
Zeige MMA alles
Zeige --A aktuell
Zeige --A Monat
Zeige --A alles
Keine MMA-Anzeige
MMA:
Average (ber die Originaldaten)
MMA-Basis: 09.04.2019 - 11.04.2019
Quicknavigation für Darstellung... ?
Tage:      1T, 2T, 3T, 5T -1T -2T -3T -5T +1T +2T +3T +5T
Wochen: 1W, 2W, 3W -1W -2W -3W +1W +2W +3W
Monate: 1M, 3M, 6M -1M -3M -6M +1M +3M +6M
Jahre:    1J, 3J, 5J, 10J -1J -3J -5J -10J +1J +3J +5J +10J
Nutze für die Darstellung ... ?
Originaldaten oder Mittelwerte auf ...
Stundenbasis Tagesbasis Wochenbasis
Monatsbasis Jahresbasis      Datenbasis: Original-Daten
Darstellen als:
Statistik (Auto) Statistik J:M      Darstellung:
Zur Graphik,    zurück zur Übersicht aller Sensoren.
 
Tabellarische Datenbersicht: ?
 
Sensor: Nr:Datum:Temp:Abs-Feuchte:Windchill:Wind:
Aussen-T/F 1 09-04-2019 00:00:00 10.5 C 9.21 g/m*3 10.5 C 0 km/h
2 09-04-2019 00:05:00 10.4 C 9.16 g/m*3 10.4 C 0 km/h
3 09-04-2019 00:10:00 10.3 C 9.1 g/m*3 10.3 C 0 km/h
4 09-04-2019 00:15:00 10.2 C 8.95 g/m*3 10.2 C 4.8 km/h
5 09-04-2019 00:20:00 10.2 C 9.04 g/m*3 10.2 C 4.8 km/h
6 09-04-2019 00:25:00 10.3 C 9.1 g/m*3 10.3 C 0 km/h
7 09-04-2019 00:30:00 10.2 C 9.04 g/m*3 10.2 C 1.6 km/h
8 09-04-2019 00:35:00 10.2 C 9.04 g/m*3 10.2 C 0 km/h
9 09-04-2019 00:40:00 10.1 C 8.98 g/m*3 10.1 C 0 km/h
10 09-04-2019 00:45:00 10.1 C 8.98 g/m*3 10.1 C 0 km/h
11 09-04-2019 00:50:00 10 C 8.93 g/m*3 10 C 0 km/h
12 09-04-2019 00:55:00 10 C 8.93 g/m*3 10 C 0 km/h
13 09-04-2019 01:00:00 10 C 8.93 g/m*3 10 C 0 km/h
14 09-04-2019 01:05:00 10 C 8.93 g/m*3 10 C 0 km/h
15 09-04-2019 01:10:00 10 C 8.93 g/m*3 10 C 0 km/h
16 09-04-2019 01:15:00 10.1 C 8.98 g/m*3 10.1 C 0 km/h
17 09-04-2019 01:20:00 10.1 C 9.08 g/m*3 10.1 C 3.2 km/h
18 09-04-2019 01:25:00 10.2 C 9.14 g/m*3 10.2 C 0 km/h
19 09-04-2019 01:30:00 10.2 C 9.14 g/m*3 10.2 C 0 km/h
20 09-04-2019 01:35:00 10.2 C 9.14 g/m*3 10.2 C 0 km/h
21 09-04-2019 01:40:00 10.3 C 9.19 g/m*3 10.3 C 0 km/h
22 09-04-2019 01:45:00 10.3 C 9.19 g/m*3 10.3 C 0 km/h
23 09-04-2019 01:50:00 10.3 C 9.19 g/m*3 10.3 C 0 km/h
24 09-04-2019 01:55:00 10.3 C 9.19 g/m*3 10.3 C 0 km/h
25 09-04-2019 02:00:00 10.3 C 9.19 g/m*3 10.3 C 0 km/h
Sensor: Nr:Datum:Temp:Abs-Feuchte:Windchill:Wind:
Aussen-T/F 26 09-04-2019 02:05:00 10.3 C 9.19 g/m*3 10.3 C 0 km/h
27 09-04-2019 02:10:00 10.3 C 9.19 g/m*3 10.3 C 0 km/h
28 09-04-2019 02:15:00 10.3 C 9.19 g/m*3 10.3 C 0 km/h
29 09-04-2019 02:20:00 10.4 C 9.25 g/m*3 10.4 C 0 km/h
30 09-04-2019 02:25:00 10.4 C 9.25 g/m*3 10.4 C 0 km/h
31 09-04-2019 02:30:00 10.5 C 9.31 g/m*3 10.5 C 0 km/h
32 09-04-2019 02:35:00 10.6 C 9.37 g/m*3 10.6 C 0 km/h
33 09-04-2019 02:40:00 10.6 C 9.37 g/m*3 10.6 C 0 km/h
34 09-04-2019 02:45:00 10.6 C 9.37 g/m*3 10.6 C 0 km/h
35 09-04-2019 02:50:00 10.5 C 9.31 g/m*3 10.5 C 0 km/h
36 09-04-2019 02:55:00 10.5 C 9.31 g/m*3 10.5 C 0 km/h
37 09-04-2019 03:00:00 10.4 C 9.25 g/m*3 10.4 C 0 km/h
38 09-04-2019 03:05:00 10.4 C 9.25 g/m*3 10.4 C 0 km/h
39 09-04-2019 03:10:00 10.4 C 9.25 g/m*3 10.4 C 0 km/h
40 09-04-2019 03:15:00 10.3 C 9.19 g/m*3 10.3 C 0 km/h
41 09-04-2019 03:20:00 10.3 C 9.19 g/m*3 10.3 C 0 km/h
42 09-04-2019 03:25:00 10.3 C 9.19 g/m*3 10.3 C 0 km/h
43 09-04-2019 03:30:00 10.2 C 9.14 g/m*3 10.2 C 0 km/h
44 09-04-2019 03:35:00 10.1 C 9.08 g/m*3 10.1 C 0 km/h
45 09-04-2019 03:40:00 10 C 9.02 g/m*3 10 C 0 km/h
46 09-04-2019 03:45:00 9.9 C 8.96 g/m*3 9.9 C 0 km/h
47 09-04-2019 03:50:00 9.8 C 8.91 g/m*3 9.8 C 0 km/h
48 09-04-2019 03:55:00 9.8 C 8.91 g/m*3 9.8 C 0 km/h
49 09-04-2019 04:00:00 9.9 C 8.96 g/m*3 9.9 C 0 km/h
50 09-04-2019 04:05:00 9.9 C 8.96 g/m*3 9.9 C 0 km/h
Sensor: Nr:Datum:Temp:Abs-Feuchte:Windchill:Wind:
Aussen-T/F 51 09-04-2019 04:10:00 10 C 9.02 g/m*3 10 C 0 km/h
52 09-04-2019 04:15:00 10 C 9.02 g/m*3 10 C 0 km/h
53 09-04-2019 04:20:00 10 C 9.02 g/m*3 10 C 0 km/h
54 09-04-2019 04:25:00 9.9 C 8.96 g/m*3 9.9 C 0 km/h
55 09-04-2019 04:30:00 9.7 C 8.85 g/m*3 9.7 C 0 km/h
56 09-04-2019 04:35:00 9.7 C 8.85 g/m*3 9.7 C 0 km/h
57 09-04-2019 04:40:00 9.6 C 8.79 g/m*3 9.6 C 0 km/h
58 09-04-2019 04:45:00 9.4 C 8.68 g/m*3 9.4 C 0 km/h
59 09-04-2019 04:50:00 9.4 C 8.68 g/m*3 9.4 C 0 km/h
60 09-04-2019 04:55:00 9.3 C 8.63 g/m*3 9.3 C 0 km/h
61 09-04-2019 05:00:00 9.3 C 8.63 g/m*3 9.3 C 0 km/h
62 09-04-2019 05:05:00 9.2 C 8.57 g/m*3 9.2 C 0 km/h
63 09-04-2019 05:10:00 9.2 C 8.57 g/m*3 9.2 C 0 km/h
64 09-04-2019 05:15:00 9.1 C 8.52 g/m*3 9.1 C 0 km/h
65 09-04-2019 05:20:00 9.1 C 8.52 g/m*3 9.1 C 0 km/h
66 09-04-2019 05:25:00 9 C 8.46 g/m*3 9 C 0 km/h
67 09-04-2019 05:30:00 8.9 C 8.41 g/m*3 8.9 C 0 km/h
68 09-04-2019 05:35:00 8.9 C 8.41 g/m*3 8.9 C 0 km/h
69 09-04-2019 05:40:00 8.9 C 8.41 g/m*3 8.9 C 0 km/h
70 09-04-2019 05:45:00 8.9 C 8.41 g/m*3 8.9 C 0 km/h
71 09-04-2019 05:50:00 8.9 C 8.41 g/m*3 8.9 C 0 km/h
72 09-04-2019 05:55:00 8.9 C 8.41 g/m*3 8.9 C 0 km/h
73 09-04-2019 06:00:00 8.9 C 8.41 g/m*3 8.9 C 0 km/h
74 09-04-2019 06:05:00 8.9 C 8.41 g/m*3 8.9 C 0 km/h
75 09-04-2019 06:10:00 8.9 C 8.41 g/m*3 8.9 C 0 km/h
Sensor: Nr:Datum:Temp:Abs-Feuchte:Windchill:Wind:
Aussen-T/F 76 09-04-2019 06:15:00 8.9 C 8.41 g/m*3 8.9 C 0 km/h
77 09-04-2019 06:20:00 8.9 C 8.5 g/m*3 8.9 C 0 km/h
78 09-04-2019 06:25:00 8.9 C 8.5 g/m*3 8.9 C 0 km/h
79 09-04-2019 06:30:00 8.9 C 8.41 g/m*3 8.9 C 0 km/h
80 09-04-2019 06:35:00 8.9 C 8.41 g/m*3 8.9 C 0 km/h
81 09-04-2019 06:40:00 8.9 C 8.41 g/m*3 8.9 C 0 km/h
82 09-04-2019 06:45:00 9 C 8.55 g/m*3 9 C 0 km/h
83 09-04-2019 06:50:00 9.1 C 8.61 g/m*3 9.1 C 0 km/h
84 09-04-2019 06:55:00 9.1 C 8.61 g/m*3 9.1 C 0 km/h
85 09-04-2019 07:00:00 9.1 C 8.61 g/m*3 9.1 C 0 km/h
86 09-04-2019 07:05:00 9.2 C 8.66 g/m*3 9.2 C 0 km/h
87 09-04-2019 07:10:00 9.2 C 8.66 g/m*3 9.2 C 0 km/h
88 09-04-2019 07:15:00 9.2 C 8.66 g/m*3 9.2 C 0 km/h
89 09-04-2019 07:20:00 9.2 C 8.66 g/m*3 9.2 C 0 km/h
90 09-04-2019 07:25:00 9.2 C 8.66 g/m*3 9.2 C 0 km/h
91 09-04-2019 07:30:00 9.3 C 8.72 g/m*3 9.3 C 0 km/h
92 09-04-2019 07:35:00 9.3 C 8.72 g/m*3 9.3 C 0 km/h
93 09-04-2019 07:40:00 9.4 C 8.77 g/m*3 9.4 C 0 km/h
94 09-04-2019 07:45:00 9.4 C 8.77 g/m*3 9.4 C 0 km/h
95 09-04-2019 07:50:00 9.6 C 8.89 g/m*3 9.6 C 0 km/h
96 09-04-2019 07:55:00 9.6 C 8.89 g/m*3 9.6 C 0 km/h
97 09-04-2019 08:00:00 9.6 C 8.89 g/m*3 9.6 C 0 km/h
98 09-04-2019 08:05:00 9.6 C 8.89 g/m*3 9.6 C 0 km/h
99 09-04-2019 08:10:00 9.6 C 8.89 g/m*3 9.6 C 0 km/h
100 09-04-2019 08:15:00 9.7 C 8.94 g/m*3 9.7 C 0 km/h
Sensor: Nr:Datum:Temp:Abs-Feuchte:Windchill:Wind:
Aussen-T/F 101 09-04-2019 08:20:00 9.7 C 8.94 g/m*3 9.7 C 0 km/h
102 09-04-2019 08:25:00 9.8 C 9 g/m*3 9.8 C 0 km/h
103 09-04-2019 08:30:00 9.9 C 9.06 g/m*3 9.9 C 0 km/h
104 09-04-2019 08:35:00 10 C 9.11 g/m*3 10 C 0 km/h
105 09-04-2019 08:40:00 10.1 C 9.17 g/m*3 10.1 C 0 km/h
106 09-04-2019 08:45:00 10.1 C 9.17 g/m*3 10.1 C 0 km/h
107 09-04-2019 08:50:00 10.2 C 9.23 g/m*3 10.2 C 0 km/h
108 09-04-2019 08:55:00 10.2 C 9.23 g/m*3 10.2 C 0 km/h
109 09-04-2019 09:00:00 10.3 C 9.29 g/m*3 10.3 C 0 km/h
110 09-04-2019 09:05:00 10.4 C 9.35 g/m*3 10.4 C 3.2 km/h
111 09-04-2019 09:10:00 10.4 C 9.35 g/m*3 10.4 C 3.2 km/h
112 09-04-2019 09:15:00 10.4 C 9.35 g/m*3 10.4 C 0 km/h
113 09-04-2019 09:20:00 10.4 C 9.35 g/m*3 10.4 C 0 km/h
114 09-04-2019 09:25:00 10.4 C 9.35 g/m*3 10.4 C 0 km/h
115 09-04-2019 09:30:00 10.5 C 9.41 g/m*3 10.5 C 0 km/h
116 09-04-2019 09:35:00 10.6 C 9.47 g/m*3 10.6 C 0 km/h
117 09-04-2019 09:40:00 10.6 C 9.47 g/m*3 10.6 C 0 km/h
118 09-04-2019 09:45:00 10.7 C 9.53 g/m*3 10.7 C 0 km/h
119 09-04-2019 09:50:00 10.7 C 9.53 g/m*3 10.7 C 0 km/h
120 09-04-2019 09:55:00 10.7 C 9.53 g/m*3 10.7 C 0 km/h
121 09-04-2019 10:00:00 10.8 C 9.59 g/m*3 10.8 C 0 km/h
122 09-04-2019 10:05:00 10.8 C 9.49 g/m*3 10.8 C 0 km/h
123 09-04-2019 10:10:00 10.9 C 9.55 g/m*3 10.9 C 0 km/h
124 09-04-2019 10:15:00 11 C 9.61 g/m*3 11 C 0 km/h
125 09-04-2019 10:20:00 11 C 9.61 g/m*3 11 C 0 km/h
Sensor: Nr:Datum:Temp:Abs-Feuchte:Windchill:Wind:
Aussen-T/F 126 09-04-2019 10:25:00 11.1 C 9.67 g/m*3 11.1 C 0 km/h
127 09-04-2019 10:30:00 11.1 C 9.67 g/m*3 11.1 C 1.6 km/h
128 09-04-2019 10:35:00 11.2 C 9.73 g/m*3 11.2 C 1.6 km/h
129 09-04-2019 10:40:00 11.2 C 9.73 g/m*3 11.2 C 3.2 km/h
130 09-04-2019 10:45:00 11.3 C 9.69 g/m*3 11.3 C 3.2 km/h
131 09-04-2019 10:50:00 11.3 C 9.69 g/m*3 11.3 C 3.2 km/h
132 09-04-2019 10:55:00 11.4 C 9.75 g/m*3 11.4 C 1.6 km/h
133 09-04-2019 11:00:00 11.6 C 9.87 g/m*3 11.6 C 1.6 km/h
134 09-04-2019 11:05:00 11.6 C 9.87 g/m*3 11.6 C 1.6 km/h
135 09-04-2019 11:10:00 11.7 C 9.94 g/m*3 11.7 C 1.6 km/h
136 09-04-2019 11:15:00 11.7 C 9.94 g/m*3 11.7 C 1.6 km/h
137 09-04-2019 11:20:00 11.8 C 10 g/m*3 11.8 C 0 km/h
138 09-04-2019 11:25:00 11.9 C 10.06 g/m*3 11.9 C 1.6 km/h
139 09-04-2019 11:30:00 12 C 10.12 g/m*3 12 C 3.2 km/h
140 09-04-2019 11:35:00 12 C 10.02 g/m*3 12 C 3.2 km/h
141 09-04-2019 11:40:00 12.1 C 10.19 g/m*3 12.1 C 1.6 km/h
142 09-04-2019 11:45:00 12.1 C 10.08 g/m*3 12.1 C 1.6 km/h
143 09-04-2019 11:50:00 12.2 C 10.14 g/m*3 12.2 C 4.8 km/h
144 09-04-2019 11:55:00 12.2 C 10.14 g/m*3 12.2 C 3.2 km/h
145 09-04-2019 12:00:00 12.3 C 10.21 g/m*3 12.3 C 3.2 km/h
146 09-04-2019 12:05:00 12.4 C 10.27 g/m*3 12.4 C 1.6 km/h
147 09-04-2019 12:10:00 12.4 C 10.16 g/m*3 12.4 C 1.6 km/h
148 09-04-2019 12:15:00 12.5 C 10.22 g/m*3 12.5 C 1.6 km/h
149 09-04-2019 12:20:00 12.5 C 10.22 g/m*3 12.5 C 0 km/h
150 09-04-2019 12:25:00 12.6 C 10.29 g/m*3 12.6 C 0 km/h
Sensor: Nr:Datum:Temp:Abs-Feuchte:Windchill:Wind:
Aussen-T/F 151 09-04-2019 12:30:00 12.7 C 10.35 g/m*3 12.7 C 0 km/h
152 09-04-2019 12:35:00 12.9 C 10.37 g/m*3 12.9 C 0 km/h
153 09-04-2019 12:40:00 13.1 C 10.5 g/m*3 13.1 C 1.6 km/h
154 09-04-2019 12:45:00 13.3 C 10.63 g/m*3 13.3 C 0 km/h
155 09-04-2019 12:50:00 13.6 C 10.83 g/m*3 13.6 C 1.6 km/h
156 09-04-2019 12:55:00 13.7 C 10.54 g/m*3 13.7 C 3.2 km/h
157 09-04-2019 13:00:00 13.8 C 10.6 g/m*3 13.8 C 1.6 km/h
158 09-04-2019 13:05:00 13.9 C 10.67 g/m*3 13.9 C 1.6 km/h
159 09-04-2019 13:10:00 14 C 10.37 g/m*3 14 C 3.2 km/h
160 09-04-2019 13:15:00 14.1 C 10.56 g/m*3 14.1 C 0 km/h
161 09-04-2019 13:20:00 14.3 C 10.81 g/m*3 14.3 C 1.6 km/h
162 09-04-2019 13:25:00 14.5 C 10.94 g/m*3 14.5 C 3.2 km/h
163 09-04-2019 13:30:00 14.6 C 10.76 g/m*3 14.6 C 3.2 km/h
164 09-04-2019 13:35:00 14.6 C 10.64 g/m*3 14.6 C 3.2 km/h
165 09-04-2019 13:40:00 14.7 C 10.7 g/m*3 14.7 C 4.8 km/h
166 09-04-2019 13:45:00 14.9 C 10.71 g/m*3 14.9 C 6.4 km/h
167 09-04-2019 13:50:00 15.1 C 10.84 g/m*3 15.1 C 4.8 km/h
168 09-04-2019 13:55:00 15.2 C 10.64 g/m*3 15.2 C 4.8 km/h
169 09-04-2019 14:00:00 15.3 C 10.71 g/m*3 15.3 C 6.4 km/h
170 09-04-2019 14:05:00 15.5 C 10.84 g/m*3 15.5 C 4.8 km/h
171 09-04-2019 14:10:00 15.7 C 10.84 g/m*3 15.7 C 4.8 km/h
172 09-04-2019 14:15:00 15.8 C 10.77 g/m*3 15.8 C 6.4 km/h
173 09-04-2019 14:20:00 15.9 C 10.56 g/m*3 15.9 C 6.4 km/h
174 09-04-2019 14:25:00 16.1 C 10.69 g/m*3 16.1 C 6.4 km/h
175 09-04-2019 14:30:00 16.2 C 10.89 g/m*3 16.2 C 6.4 km/h
Sensor: Nr:Datum:Temp:Abs-Feuchte:Windchill:Wind:
Aussen-T/F 176 09-04-2019 14:35:00 16.3 C 10.96 g/m*3 16.3 C 8.1 km/h
177 09-04-2019 14:40:00 16.4 C 10.89 g/m*3 16.4 C 4.8 km/h
178 09-04-2019 14:45:00 16.5 C 10.81 g/m*3 16.5 C 8.1 km/h
179 09-04-2019 14:50:00 16.6 C 10.88 g/m*3 16.6 C 9.7 km/h
180 09-04-2019 14:55:00 16.6 C 10.74 g/m*3 16.6 C 9.7 km/h
181 09-04-2019 15:00:00 16.5 C 10.67 g/m*3 16.5 C 6.4 km/h
182 09-04-2019 15:05:00 16.4 C 10.89 g/m*3 16.4 C 4.8 km/h
183 09-04-2019 15:10:00 16.4 C 10.89 g/m*3 16.4 C 0 km/h
184 09-04-2019 15:15:00 16.3 C 10.82 g/m*3 16.3 C 6.4 km/h
185 09-04-2019 15:20:00 16.3 C 10.82 g/m*3 16.3 C 4.8 km/h
186 09-04-2019 15:25:00 16.3 C 10.82 g/m*3 16.3 C 8.1 km/h
187 09-04-2019 15:30:00 16.3 C 10.82 g/m*3 16.3 C 8.1 km/h
188 09-04-2019 15:35:00 16.2 C 10.76 g/m*3 16.2 C 6.4 km/h
189 09-04-2019 15:40:00 16.3 C 10.96 g/m*3 16.3 C 3.2 km/h
190 09-04-2019 15:45:00 16.3 C 10.82 g/m*3 16.3 C 4.8 km/h
191 09-04-2019 15:50:00 16.3 C 10.82 g/m*3 16.3 C 8.1 km/h
192 09-04-2019 15:55:00 16.3 C 10.82 g/m*3 16.3 C 4.8 km/h
193 09-04-2019 16:00:00 16.2 C 10.76 g/m*3 16.2 C 6.4 km/h
194 09-04-2019 16:05:00 16.2 C 10.76 g/m*3 16.2 C 6.4 km/h
195 09-04-2019 16:10:00 16.1 C 10.83 g/m*3 16.1 C 8.1 km/h
196 09-04-2019 16:15:00 16.1 C 10.83 g/m*3 16.1 C 4.8 km/h
197 09-04-2019 16:20:00 16 C 10.9 g/m*3 16 C 6.4 km/h
198 09-04-2019 16:25:00 16 C 10.76 g/m*3 16 C 1.6 km/h
199 09-04-2019 16:30:00 16 C 10.76 g/m*3 16 C 6.4 km/h
200 09-04-2019 16:35:00 16 C 10.76 g/m*3 16 C 4.8 km/h
Sensor: Nr:Datum:Temp:Abs-Feuchte:Windchill:Wind:
Aussen-T/F 201 09-04-2019 16:40:00 16.1 C 10.83 g/m*3 16.1 C 4.8 km/h
202 09-04-2019 16:45:00 16.1 C 10.83 g/m*3 16.1 C 6.4 km/h
203 09-04-2019 16:50:00 16.1 C 10.69 g/m*3 16.1 C 6.4 km/h
204 09-04-2019 16:55:00 16.1 C 10.83 g/m*3 16.1 C 3.2 km/h
205 09-04-2019 17:00:00 16 C 10.63 g/m*3 16 C 4.8 km/h
206 09-04-2019 17:05:00 15.9 C 10.7 g/m*3 15.9 C 0 km/h
207 09-04-2019 17:10:00 15.9 C 10.7 g/m*3 15.9 C 3.2 km/h
208 09-04-2019 17:15:00 15.9 C 10.83 g/m*3 15.9 C 0 km/h
209 09-04-2019 17:20:00 15.9 C 10.83 g/m*3 15.9 C 0 km/h
210 09-04-2019 17:25:00 15.9 C 10.83 g/m*3 15.9 C 0 km/h
211 09-04-2019 17:30:00 15.9 C 10.7 g/m*3 15.9 C 0 km/h
212 09-04-2019 17:35:00 15.8 C 10.63 g/m*3 15.8 C 0 km/h
213 09-04-2019 17:40:00 15.8 C 10.5 g/m*3 15.8 C 0 km/h
214 09-04-2019 17:45:00 15.8 C 10.63 g/m*3 15.8 C 0 km/h
215 09-04-2019 17:50:00 15.7 C 10.57 g/m*3 15.7 C 0 km/h
216 09-04-2019 17:55:00 15.7 C 10.7 g/m*3 15.7 C 0 km/h
217 09-04-2019 18:00:00 15.7 C 10.84 g/m*3 15.7 C 0 km/h
218 09-04-2019 18:05:00 15.6 C 10.91 g/m*3 15.6 C 0 km/h
219 09-04-2019 18:10:00 15.6 C 10.91 g/m*3 15.6 C 0 km/h
220 09-04-2019 18:15:00 15.5 C 10.97 g/m*3 15.5 C 0 km/h
221 09-04-2019 18:20:00 15.4 C 10.9 g/m*3 15.4 C 0 km/h
222 09-04-2019 18:25:00 15.4 C 10.9 g/m*3 15.4 C 0 km/h
223 09-04-2019 18:30:00 15.3 C 10.84 g/m*3 15.3 C 0 km/h
224 09-04-2019 18:35:00 15.3 C 10.84 g/m*3 15.3 C 0 km/h
225 09-04-2019 18:40:00 15.3 C 10.97 g/m*3 15.3 C 0 km/h
Sensor: Nr:Datum:Temp:Abs-Feuchte:Windchill:Wind:
Aussen-T/F 226 09-04-2019 18:45:00 15.3 C 10.97 g/m*3 15.3 C 1.6 km/h
227 09-04-2019 18:50:00 15.2 C 10.9 g/m*3 15.2 C 0 km/h
228 09-04-2019 18:55:00 15.2 C 10.9 g/m*3 15.2 C 0 km/h
229 09-04-2019 19:00:00 15.1 C 10.84 g/m*3 15.1 C 0 km/h
230 09-04-2019 19:05:00 15 C 10.51 g/m*3 15 C 0 km/h
231 09-04-2019 19:10:00 14.9 C 10.58 g/m*3 14.9 C 0 km/h
232 09-04-2019 19:15:00 14.8 C 10.39 g/m*3 14.8 C 0 km/h
233 09-04-2019 19:20:00 14.6 C 10.26 g/m*3 14.6 C 4.8 km/h
234 09-04-2019 19:25:00 14.5 C 10.2 g/m*3 14.5 C 4.8 km/h
235 09-04-2019 19:30:00 14.5 C 10.07 g/m*3 14.5 C 0 km/h
236 09-04-2019 19:35:00 14.4 C 10.14 g/m*3 14.4 C 3.2 km/h
237 09-04-2019 19:40:00 14.3 C 9.83 g/m*3 14.3 C 6.4 km/h
238 09-04-2019 19:45:00 14.4 C 9.89 g/m*3 14.4 C 3.2 km/h
239 09-04-2019 19:50:00 14.3 C 9.83 g/m*3 14.3 C 3.2 km/h
240 09-04-2019 19:55:00 14.2 C 9.52 g/m*3 14.2 C 8.1 km/h
241 09-04-2019 20:00:00 14.2 C 9.52 g/m*3 14.2 C 4.8 km/h
242 09-04-2019 20:05:00 14.2 C 9.89 g/m*3 14.2 C 0 km/h
243 09-04-2019 20:10:00 14.1 C 9.71 g/m*3 14.1 C 1.6 km/h
244 09-04-2019 20:15:00 13.9 C 9.59 g/m*3 13.9 C 3.2 km/h
245 09-04-2019 20:20:00 13.8 C 9.77 g/m*3 13.8 C 1.6 km/h
246 09-04-2019 20:25:00 13.7 C 9.71 g/m*3 13.7 C 0 km/h
247 09-04-2019 20:30:00 13.6 C 9.77 g/m*3 13.6 C 0 km/h
248 09-04-2019 20:35:00 13.4 C 9.65 g/m*3 13.4 C 0 km/h
249 09-04-2019 20:40:00 13.3 C 9.7 g/m*3 13.3 C 0 km/h
250 09-04-2019 20:45:00 13.2 C 9.64 g/m*3 13.2 C 0 km/h
Sensor: Nr:Datum:Temp:Abs-Feuchte:Windchill:Wind:
Aussen-T/F 251 09-04-2019 20:50:00 13.1 C 9.7 g/m*3 13.1 C 0 km/h
252 09-04-2019 20:55:00 13 C 9.64 g/m*3 13 C 0 km/h
253 09-04-2019 21:00:00 12.9 C 9.58 g/m*3 12.9 C 0 km/h
254 09-04-2019 21:05:00 12.8 C 9.52 g/m*3 12.8 C 0 km/h
255 09-04-2019 21:10:00 12.7 C 9.46 g/m*3 12.7 C 0 km/h
256 09-04-2019 21:15:00 12.6 C 9.4 g/m*3 12.6 C 0 km/h
257 09-04-2019 21:20:00 12.5 C 9.24 g/m*3 12.5 C 0 km/h
258 09-04-2019 21:25:00 12.4 C 9.18 g/m*3 12.4 C 0 km/h
259 09-04-2019 21:30:00 12.4 C 9.07 g/m*3 12.4 C 0 km/h
260 09-04-2019 21:35:00 12.3 C 9.01 g/m*3 12.3 C 0 km/h
261 09-04-2019 21:40:00 12.3 C 9.01 g/m*3 12.3 C 0 km/h
262 09-04-2019 21:45:00 12.3 C 9.12 g/m*3 12.3 C 3.2 km/h
263 09-04-2019 21:50:00 12.3 C 9.12 g/m*3 12.3 C 1.6 km/h
264 09-04-2019 21:55:00 12.3 C 9.23 g/m*3 12.3 C 0 km/h
265 09-04-2019 22:00:00 12.2 C 9.06 g/m*3 12.2 C 3.2 km/h
266 09-04-2019 22:05:00 12.2 C 8.74 g/m*3 12.2 C 4.8 km/h
267 09-04-2019 22:10:00 12.2 C 8.42 g/m*3 12.2 C 4.8 km/h
268 09-04-2019 22:15:00 12.3 C 8.14 g/m*3 12.3 C 4.8 km/h
269 09-04-2019 22:20:00 12.4 C 8.19 g/m*3 12.4 C 1.6 km/h
270 09-04-2019 22:25:00 12.4 C 8.19 g/m*3 12.4 C 6.4 km/h
271 09-04-2019 22:30:00 12.5 C 7.92 g/m*3 12.5 C 4.8 km/h
272 09-04-2019 22:35:00 12.5 C 8.03 g/m*3 12.5 C 4.8 km/h
273 09-04-2019 22:40:00 12.5 C 7.81 g/m*3 12.5 C 4.8 km/h
274 09-04-2019 22:45:00 12.5 C 7.81 g/m*3 12.5 C 4.8 km/h
275 09-04-2019 22:50:00 12.4 C 7.98 g/m*3 12.4 C 4.8 km/h
Sensor: Nr:Datum:Temp:Abs-Feuchte:Windchill:Wind:
Aussen-T/F 276 09-04-2019 22:55:00 12.3 C 7.6 g/m*3 12.3 C 4.8 km/h
277 09-04-2019 23:00:00 12.3 C 7.71 g/m*3 12.3 C 4.8 km/h
278 09-04-2019 23:05:00 12.3 C 7.71 g/m*3 12.3 C 4.8 km/h
279 09-04-2019 23:10:00 12.3 C 7.6 g/m*3 12.3 C 8.1 km/h
280 09-04-2019 23:15:00 12.3 C 7.71 g/m*3 12.3 C 3.2 km/h
281 09-04-2019 23:20:00 12.3 C 7.6 g/m*3 12.3 C 6.4 km/h
282 09-04-2019 23:25:00 12.2 C 7.55 g/m*3 12.2 C 4.8 km/h
283 09-04-2019 23:30:00 12.2 C 7.55 g/m*3 12.2 C 4.8 km/h
284 09-04-2019 23:35:00 12.2 C 7.55 g/m*3 12.2 C 12.9 km/h
285 09-04-2019 23:40:00 12.1 C 7.51 g/m*3 12.1 C 11.3 km/h
286 09-04-2019 23:45:00 12.1 C 7.61 g/m*3 12.1 C 8.1 km/h
287 09-04-2019 23:50:00 11.9 C 7.52 g/m*3 11.9 C 9.7 km/h
288 09-04-2019 23:55:00 11.8 C 7.58 g/m*3 11.8 C 9.7 km/h
289 10-04-2019 00:00:00 11.7 C 7.74 g/m*3 11.7 C 12.9 km/h
290 10-04-2019 00:05:00 11.6 C 7.8 g/m*3 11.6 C 6.4 km/h
291 10-04-2019 00:10:00 11.4 C 8.01 g/m*3 11.4 C 4.8 km/h
292 10-04-2019 00:15:00 11.3 C 7.75 g/m*3 11.3 C 0 km/h
293 10-04-2019 00:20:00 11.2 C 8.01 g/m*3 11.2 C 0 km/h
294 10-04-2019 00:25:00 11 C 8.11 g/m*3 11 C 0 km/h
295 10-04-2019 00:30:00 10.8 C 7.81 g/m*3 10.8 C 0 km/h
296 10-04-2019 00:35:00 10.7 C 7.96 g/m*3 10.7 C 0 km/h
297 10-04-2019 00:40:00 10.5 C 7.86 g/m*3 10.5 C 0 km/h
298 10-04-2019 00:45:00 10.3 C 7.66 g/m*3 9.72 C 6.4 km/h
299 10-04-2019 00:50:00 10.3 C 7.76 g/m*3 10.3 C 1.6 km/h
300 10-04-2019 00:55:00 10.3 C 7.76 g/m*3 10.3 C 3.2 km/h
Sensor: Nr:Datum:Temp:Abs-Feuchte:Windchill:Wind:
Aussen-T/F 301 10-04-2019 01:00:00 10.2 C 7.61 g/m*3 10.2 C 1.6 km/h
302 10-04-2019 01:05:00 10.2 C 7.52 g/m*3 8.92 C 9.7 km/h
303 10-04-2019 01:10:00 10.3 C 7.47 g/m*3 10.3 C 1.6 km/h
304 10-04-2019 01:15:00 10.3 C 7.47 g/m*3 10.3 C 4.8 km/h
305 10-04-2019 01:20:00 10.4 C 7.42 g/m*3 10.4 C 4.8 km/h
306 10-04-2019 01:25:00 10.4 C 7.52 g/m*3 10.4 C 4.8 km/h
307 10-04-2019 01:30:00 10.4 C 7.42 g/m*3 9.16 C 9.7 km/h
308 10-04-2019 01:35:00 10.5 C 7.47 g/m*3 10.5 C 3.2 km/h
309 10-04-2019 01:40:00 10.5 C 7.37 g/m*3 9.95 C 6.4 km/h
310 10-04-2019 01:45:00 10.5 C 7.57 g/m*3 10.5 C 1.6 km/h
311 10-04-2019 01:50:00 10.4 C 7.71 g/m*3 10.4 C 3.2 km/h
312 10-04-2019 01:55:00 10.3 C 7.66 g/m*3 10.3 C 0 km/h
313 10-04-2019 02:00:00 10.2 C 7.71 g/m*3 10.2 C 0 km/h
314 10-04-2019 02:05:00 10.1 C 7.66 g/m*3 10.1 C 0 km/h
315 10-04-2019 02:10:00 10.1 C 7.66 g/m*3 10.1 C 1.6 km/h
316 10-04-2019 02:15:00 9.9 C 7.56 g/m*3 9.9 C 0 km/h
317 10-04-2019 02:20:00 9.9 C 7.47 g/m*3 9.9 C 3.2 km/h
318 10-04-2019 02:25:00 9.9 C 7.56 g/m*3 9.9 C 3.2 km/h
319 10-04-2019 02:30:00 9.9 C 7.56 g/m*3 9.9 C 3.2 km/h
320 10-04-2019 02:35:00 9.8 C 7.61 g/m*3 9.8 C 0 km/h
321 10-04-2019 02:40:00 9.8 C 7.52 g/m*3 9.8 C 1.6 km/h
322 10-04-2019 02:45:00 9.8 C 7.52 g/m*3 9.8 C 3.2 km/h
323 10-04-2019 02:50:00 9.8 C 7.42 g/m*3 9.8 C 3.2 km/h
324 10-04-2019 02:55:00 9.8 C 7.52 g/m*3 9.8 C 0 km/h
325 10-04-2019 03:00:00 9.8 C 7.33 g/m*3 8.75 C 8.1 km/h
Sensor: Nr:Datum:Temp:Abs-Feuchte:Windchill:Wind:
Aussen-T/F 326 10-04-2019 03:05:00 9.9 C 7.38 g/m*3 9.9 C 0 km/h
327 10-04-2019 03:10:00 9.9 C 7.28 g/m*3 9.9 C 4.8 km/h
328 10-04-2019 03:15:00 9.9 C 7.47 g/m*3 9.9 C 0 km/h
329 10-04-2019 03:20:00 9.9 C 7.38 g/m*3 9.25 C 6.4 km/h
330 10-04-2019 03:25:00 9.8 C 7.33 g/m*3 9.14 C 6.4 km/h
331 10-04-2019 03:30:00 9.8 C 7.33 g/m*3 9.8 C 1.6 km/h
332 10-04-2019 03:35:00 9.8 C 7.24 g/m*3 9.8 C 1.6 km/h
333 10-04-2019 03:40:00 9.7 C 7.28 g/m*3 9.7 C 0 km/h
334 10-04-2019 03:45:00 9.6 C 7.15 g/m*3 9.6 C 3.2 km/h
335 10-04-2019 03:50:00 9.6 C 7.24 g/m*3 9.6 C 0 km/h
336 10-04-2019 03:55:00 9.6 C 7.05 g/m*3 8.52 C 8.1 km/h
337 10-04-2019 04:00:00 9.6 C 7.24 g/m*3 9.6 C 0 km/h
338 10-04-2019 04:05:00 9.5 C 7.28 g/m*3 9.5 C 0 km/h
339 10-04-2019 04:10:00 9.3 C 7.1 g/m*3 9.3 C 0 km/h
340 10-04-2019 04:15:00 9.2 C 7.14 g/m*3 9.2 C 0 km/h
341 10-04-2019 04:20:00 9.1 C 7.1 g/m*3 9.1 C 0 km/h
342 10-04-2019 04:25:00 8.9 C 7.01 g/m*3 8.9 C 0 km/h
343 10-04-2019 04:30:00 8.7 C 7.01 g/m*3 8.7 C 0 km/h
344 10-04-2019 04:35:00 8.6 C 7.05 g/m*3 8.6 C 0 km/h
345 10-04-2019 04:40:00 8.4 C 6.96 g/m*3 8.4 C 3.2 km/h
346 10-04-2019 04:45:00 8.2 C 6.95 g/m*3 8.2 C 0 km/h
347 10-04-2019 04:50:00 8.1 C 6.99 g/m*3 8.1 C 1.6 km/h
348 10-04-2019 04:55:00 7.9 C 6.9 g/m*3 7.9 C 1.6 km/h
349 10-04-2019 05:00:00 7.8 C 6.86 g/m*3 7.8 C 1.6 km/h
350 10-04-2019 05:05:00 7.8 C 6.94 g/m*3 7.8 C 0 km/h
Sensor: Nr:Datum:Temp:Abs-Feuchte:Windchill:Wind:
Aussen-T/F 351 10-04-2019 05:10:00 7.8 C 6.94 g/m*3 7.8 C 0 km/h
352 10-04-2019 05:15:00 7.7 C 6.81 g/m*3 7.7 C 0 km/h
353 10-04-2019 05:20:00 7.6 C 6.77 g/m*3 7.6 C 0 km/h
354 10-04-2019 05:25:00 7.4 C 6.68 g/m*3 7.4 C 0 km/h
355 10-04-2019 05:30:00 7.3 C 6.72 g/m*3 7.3 C 0 km/h
356 10-04-2019 05:35:00 7.2 C 6.67 g/m*3 7.2 C 0 km/h
357 10-04-2019 05:40:00 7.1 C 6.63 g/m*3 7.1 C 0 km/h
358 10-04-2019 05:45:00 6.9 C 6.54 g/m*3 6.9 C 1.6 km/h
359 10-04-2019 05:50:00 6.8 C 6.5 g/m*3 6.8 C 1.6 km/h
360 10-04-2019 05:55:00 6.7 C 6.53 g/m*3 6.7 C 1.6 km/h
361 10-04-2019 06:00:00 6.7 C 6.53 g/m*3 6.7 C 0 km/h
362 10-04-2019 06:05:00 6.6 C 6.49 g/m*3 6.6 C 0 km/h
363 10-04-2019 06:10:00 6.6 C 6.57 g/m*3 6.6 C 0 km/h
364 10-04-2019 06:15:00 6.6 C 6.57 g/m*3 6.6 C 1.6 km/h
365 10-04-2019 06:20:00 6.6 C 6.57 g/m*3 6.6 C 0 km/h
366 10-04-2019 06:25:00 6.5 C 6.45 g/m*3 6.5 C 0 km/h
367 10-04-2019 06:30:00 6.5 C 6.45 g/m*3 6.5 C 1.6 km/h
368 10-04-2019 06:35:00 6.4 C 6.41 g/m*3 6.4 C 0 km/h
369 10-04-2019 06:40:00 6.4 C 6.41 g/m*3 6.4 C 0 km/h
370 10-04-2019 06:45:00 6.4 C 6.41 g/m*3 6.4 C 1.6 km/h
371 10-04-2019 06:50:00 6.4 C 6.41 g/m*3 6.4 C 0 km/h
372 10-04-2019 06:55:00 6.4 C 6.33 g/m*3 6.4 C 3.2 km/h
373 10-04-2019 07:00:00 6.4 C 6.33 g/m*3 6.4 C 1.6 km/h
374 10-04-2019 07:05:00 6.4 C 6.33 g/m*3 6.4 C 0 km/h
375 10-04-2019 07:10:00 6.4 C 6.33 g/m*3 6.4 C 0 km/h
Sensor: Nr:Datum:Temp:Abs-Feuchte:Windchill:Wind:
Aussen-T/F 376 10-04-2019 07:15:00 6.5 C 6.37 g/m*3 6.5 C 0 km/h
377 10-04-2019 07:20:00 6.5 C 6.3 g/m*3 6.5 C 0 km/h
378 10-04-2019 07:25:00 6.6 C 6.34 g/m*3 6.6 C 0 km/h
379 10-04-2019 07:30:00 6.6 C 6.42 g/m*3 6.6 C 0 km/h
380 10-04-2019 07:35:00 6.6 C 6.34 g/m*3 6.6 C 0 km/h
381 10-04-2019 07:40:00 6.7 C 6.38 g/m*3 6.7 C 0 km/h
382 10-04-2019 07:45:00 6.8 C 6.42 g/m*3 6.8 C 0 km/h
383 10-04-2019 07:50:00 6.8 C 6.5 g/m*3 6.8 C 0 km/h
384 10-04-2019 07:55:00 6.9 C 6.39 g/m*3 6.9 C 1.6 km/h
385 10-04-2019 08:00:00 7.1 C 6.47 g/m*3 7.1 C 0 km/h
386 10-04-2019 08:05:00 7.1 C 6.47 g/m*3 7.1 C 3.2 km/h
387 10-04-2019 08:10:00 7.2 C 6.28 g/m*3 7.2 C 4.8 km/h
388 10-04-2019 08:15:00 7.3 C 6.4 g/m*3 7.3 C 0 km/h
389 10-04-2019 08:20:00 7.4 C 6.28 g/m*3 7.4 C 4.8 km/h
390 10-04-2019 08:25:00 7.7 C 6.24 g/m*3 7.7 C 4.8 km/h
391 10-04-2019 08:30:00 7.8 C 6.2 g/m*3 7.8 C 3.2 km/h
392 10-04-2019 08:35:00 7.9 C 6.08 g/m*3 6.94 C 6.4 km/h
393 10-04-2019 08:40:00 8.1 C 6.16 g/m*3 6.42 C 9.7 km/h
394 10-04-2019 08:45:00 8.1 C 6.07 g/m*3 6.75 C 8.1 km/h
395 10-04-2019 08:50:00 8.2 C 6.11 g/m*3 6.54 C 9.7 km/h
396 10-04-2019 08:55:00 8.2 C 6.03 g/m*3 6.54 C 9.7 km/h
397 10-04-2019 09:00:00 8.3 C 6.07 g/m*3 7.41 C 6.4 km/h
398 10-04-2019 09:05:00 8.3 C 6.07 g/m*3 6.12 C 12.9 km/h
399 10-04-2019 09:10:00 8.3 C 6.07 g/m*3 5.68 C 16.1 km/h
400 10-04-2019 09:15:00 8.3 C 6.07 g/m*3 6.37 C 11.3 km/h
Sensor: Nr:Datum:Temp:Abs-Feuchte:Windchill:Wind:
Aussen-T/F 401 10-04-2019 09:20:00 8.4 C 6.11 g/m*3 6.78 C 9.7 km/h
402 10-04-2019 09:25:00 8.4 C 6.11 g/m*3 6.78 C 9.7 km/h
403 10-04-2019 09:30:00 8.5 C 6.15 g/m*3 6.61 C 11.3 km/h
404 10-04-2019 09:35:00 8.6 C 6.19 g/m*3 7.01 C 9.7 km/h
405 10-04-2019 09:40:00 8.6 C 6.19 g/m*3 7.34 C 8.1 km/h
406 10-04-2019 09:45:00 8.7 C 6.23 g/m*3 7.46 C 8.1 km/h
407 10-04-2019 09:50:00 8.8 C 6.27 g/m*3 6.97 C 11.3 km/h
408 10-04-2019 09:55:00 8.9 C 6.22 g/m*3 6.85 C 12.9 km/h
409 10-04-2019 10:00:00 9 C 6.26 g/m*3 7.49 C 9.7 km/h
410 10-04-2019 10:05:00 9.1 C 6.21 g/m*3 7.33 C 11.3 km/h
411 10-04-2019 10:10:00 9.2 C 6.34 g/m*3 7.46 C 11.3 km/h
412 10-04-2019 10:15:00 9.3 C 6.2 g/m*3 7.12 C 14.5 km/h
413 10-04-2019 10:20:00 9.4 C 6.24 g/m*3 6.86 C 17.7 km/h
414 10-04-2019 10:25:00 9.5 C 6.28 g/m*3 7.82 C 11.3 km/h
415 10-04-2019 10:30:00 9.6 C 6.32 g/m*3 8.21 C 9.7 km/h
416 10-04-2019 10:35:00 9.7 C 6.27 g/m*3 7.82 C 12.9 km/h
417 10-04-2019 10:40:00 9.8 C 6.4 g/m*3 8.18 C 11.3 km/h
418 10-04-2019 10:45:00 10 C 6.39 g/m*3 8.68 C 9.7 km/h
419 10-04-2019 10:50:00 10.1 C 6.34 g/m*3 8.54 C 11.3 km/h
420 10-04-2019 10:55:00 10.2 C 6.47 g/m*3 8.66 C 11.3 km/h
421 10-04-2019 11:00:00 10.4 C 6.55 g/m*3 9.46 C 8.1 km/h
422 10-04-2019 11:05:00 10.6 C 6.44 g/m*3 9.14 C 11.3 km/h
423 10-04-2019 11:10:00 10.7 C 6.48 g/m*3 8.84 C 14.5 km/h
424 10-04-2019 11:15:00 10.9 C 6.47 g/m*3 9.08 C 14.5 km/h
425 10-04-2019 11:20:00 11 C 6.41 g/m*3 9.4 C 12.9 km/h
Sensor: Nr:Datum:Temp:Abs-Feuchte:Windchill:Wind:
Aussen-T/F 426 10-04-2019 11:25:00 11.1 C 6.25 g/m*3 11.1 C 14.5 km/h
427 10-04-2019 11:30:00 11.2 C 6.49 g/m*3 11.2 C 9.7 km/h
428 10-04-2019 11:35:00 11.4 C 6.36 g/m*3 11.4 C 14.5 km/h
429 10-04-2019 11:40:00 11.5 C 6.4 g/m*3 11.5 C 16.1 km/h
430 10-04-2019 11:45:00 11.7 C 6.38 g/m*3 11.7 C 14.5 km/h
431 10-04-2019 11:50:00 11.8 C 6.31 g/m*3 11.8 C 12.9 km/h
432 10-04-2019 11:55:00 11.9 C 6.35 g/m*3 11.9 C 11.3 km/h
433 10-04-2019 12:00:00 11.9 C 6.25 g/m*3 11.9 C 12.9 km/h
434 10-04-2019 12:05:00 11.9 C 6.14 g/m*3 11.9 C 17.7 km/h
435 10-04-2019 12:10:00 11.9 C 6.04 g/m*3 11.9 C 11.3 km/h
436 10-04-2019 12:15:00 11.9 C 6.04 g/m*3 11.9 C 12.9 km/h
437 10-04-2019 12:20:00 11.9 C 6.14 g/m*3 11.9 C 11.3 km/h
438 10-04-2019 12:25:00 11.9 C 6.14 g/m*3 11.9 C 4.8 km/h
439 10-04-2019 12:30:00 12.1 C 6.11 g/m*3 12.1 C 11.3 km/h
440 10-04-2019 12:35:00 12.3 C 6.08 g/m*3 12.3 C 12.9 km/h
441 10-04-2019 12:40:00 12.4 C 6.01 g/m*3 12.4 C 9.7 km/h
442 10-04-2019 12:45:00 12.5 C 6.16 g/m*3 12.5 C 6.4 km/h
443 10-04-2019 12:50:00 12.6 C 6.2 g/m*3 12.6 C 9.7 km/h
444 10-04-2019 12:55:00 12.7 C 6.12 g/m*3 12.7 C 11.3 km/h
445 10-04-2019 13:00:00 12.8 C 6.05 g/m*3 12.8 C 8.1 km/h
446 10-04-2019 13:05:00 13 C 6.12 g/m*3 13 C 12.9 km/h
447 10-04-2019 13:10:00 13.1 C 6.16 g/m*3 13.1 C 12.9 km/h
448 10-04-2019 13:15:00 13.1 C 6.16 g/m*3 13.1 C 11.3 km/h
449 10-04-2019 13:20:00 13.2 C 6.2 g/m*3 13.2 C 6.4 km/h
450 10-04-2019 13:25:00 13.3 C 6.59 g/m*3 13.3 C 3.2 km/h
Sensor: Nr:Datum:Temp:Abs-Feuchte:Windchill:Wind:
Aussen-T/F 451 10-04-2019 13:30:00 13.4 C 6.51 g/m*3 13.4 C 3.2 km/h
452 10-04-2019 13:35:00 13.7 C 6.39 g/m*3 13.7 C 12.9 km/h
453 10-04-2019 13:40:00 13.8 C 6.43 g/m*3 13.8 C 11.3 km/h
454 10-04-2019 13:45:00 13.9 C 6.47 g/m*3 13.9 C 9.7 km/h
455 10-04-2019 13:50:00 13.9 C 6.35 g/m*3 13.9 C 12.9 km/h
456 10-04-2019 13:55:00 13.9 C 6.35 g/m*3 13.9 C 14.5 km/h
457 10-04-2019 14:00:00 13.9 C 6.23 g/m*3 13.9 C 17.7 km/h
458 10-04-2019 14:05:00 13.8 C 5.96 g/m*3 13.8 C 16.1 km/h
459 10-04-2019 14:10:00 13.7 C 6.04 g/m*3 13.7 C 11.3 km/h
460 10-04-2019 14:15:00 13.9 C 5.99 g/m*3 13.9 C 9.7 km/h
461 10-04-2019 14:20:00 14.1 C 6.07 g/m*3 14.1 C 9.7 km/h
462 10-04-2019 14:25:00 14.2 C 6.11 g/m*3 14.2 C 11.3 km/h
463 10-04-2019 14:30:00 14.3 C 6.02 g/m*3 14.3 C 12.9 km/h
464 10-04-2019 14:35:00 14.3 C 6.02 g/m*3 14.3 C 8.1 km/h
465 10-04-2019 14:40:00 14.4 C 6.18 g/m*3 14.4 C 12.9 km/h
466 10-04-2019 14:45:00 14.6 C 6.13 g/m*3 14.6 C 14.5 km/h
467 10-04-2019 14:50:00 14.8 C 6.08 g/m*3 14.8 C 11.3 km/h
468 10-04-2019 14:55:00 14.9 C 6.12 g/m*3 14.9 C 17.7 km/h
469 10-04-2019 15:00:00 15 C 6.28 g/m*3 15 C 17.7 km/h
470 10-04-2019 15:05:00 15 C 6.03 g/m*3 15 C 11.3 km/h
471 10-04-2019 15:10:00 15 C 6.03 g/m*3 15 C 17.7 km/h
472 10-04-2019 15:15:00 14.8 C 5.83 g/m*3 14.8 C 14.5 km/h
473 10-04-2019 15:20:00 14.8 C 5.95 g/m*3 14.8 C 14.5 km/h
474 10-04-2019 15:25:00 14.9 C 5.99 g/m*3 14.9 C 12.9 km/h
475 10-04-2019 15:30:00 15.1 C 5.93 g/m*3 15.1 C 11.3 km/h
Sensor: Nr:Datum:Temp:Abs-Feuchte:Windchill:Wind:
Aussen-T/F 476 10-04-2019 15:35:00 15.1 C 5.93 g/m*3 15.1 C 11.3 km/h
477 10-04-2019 15:40:00 15.2 C 6.1 g/m*3 15.2 C 12.9 km/h
478 10-04-2019 15:45:00 15.3 C 6.14 g/m*3 15.3 C 12.9 km/h
479 10-04-2019 15:50:00 15.4 C 6.18 g/m*3 15.4 C 12.9 km/h
480 10-04-2019 15:55:00 15.6 C 6.12 g/m*3 15.6 C 11.3 km/h
481 10-04-2019 16:00:00 15.7 C 6.15 g/m*3 15.7 C 11.3 km/h
482 10-04-2019 16:05:00 15.8 C 6.33 g/m*3 15.8 C 6.4 km/h
483 10-04-2019 16:10:00 16.1 C 6.17 g/m*3 16.1 C 14.5 km/h
484 10-04-2019 16:15:00 16.1 C 6.17 g/m*3 16.1 C 16.1 km/h
485 10-04-2019 16:20:00 16 C 5.86 g/m*3 16 C 17.7 km/h
486 10-04-2019 16:25:00 16 C 5.99 g/m*3 16 C 9.7 km/h
487 10-04-2019 16:30:00 16.1 C 5.89 g/m*3 16.1 C 17.7 km/h
488 10-04-2019 16:35:00 16.1 C 5.89 g/m*3 16.1 C 16.1 km/h
489 10-04-2019 16:40:00 16.1 C 6.03 g/m*3 16.1 C 16.1 km/h
490 10-04-2019 16:45:00 16.3 C 5.97 g/m*3 16.3 C 9.7 km/h
491 10-04-2019 16:50:00 16.4 C 5.72 g/m*3 16.4 C 17.7 km/h
492 10-04-2019 16:55:00 16.2 C 5.93 g/m*3 16.2 C 12.9 km/h
493 10-04-2019 17:00:00 16.3 C 6.1 g/m*3 16.3 C 12.9 km/h
494 10-04-2019 17:05:00 16.5 C 6.04 g/m*3 16.5 C 12.9 km/h
495 10-04-2019 17:10:00 16.8 C 6.15 g/m*3 16.8 C 11.3 km/h
496 10-04-2019 17:15:00 16.9 C 6.18 g/m*3 16.9 C 11.3 km/h
497 10-04-2019 17:20:00 16.8 C 5.86 g/m*3 16.8 C 11.3 km/h
498 10-04-2019 17:25:00 16.6 C 5.65 g/m*3 16.6 C 14.5 km/h
499 10-04-2019 17:30:00 16.5 C 5.76 g/m*3 16.5 C 12.9 km/h
500 10-04-2019 17:35:00 16.8 C 5.72 g/m*3 16.8 C 6.4 km/h
Sensor: Nr:Datum:Temp:Abs-Feuchte:Windchill:Wind:
Aussen-T/F 501 10-04-2019 17:40:00 16.8 C 5.72 g/m*3 16.8 C 11.3 km/h
502 10-04-2019 17:45:00 16.6 C 5.65 g/m*3 16.6 C 19.3 km/h
503 10-04-2019 17:50:00 16.3 C 5.27 g/m*3 16.3 C 16.1 km/h
504 10-04-2019 17:55:00 16.3 C 5.41 g/m*3 16.3 C 8.1 km/h
505 10-04-2019 18:00:00 16.3 C 5.41 g/m*3 16.3 C 14.5 km/h
506 10-04-2019 18:05:00 16.2 C 5.38 g/m*3 16.2 C 16.1 km/h
507 10-04-2019 18:10:00 16.3 C 5.27 g/m*3 16.3 C 9.7 km/h
508 10-04-2019 18:15:00 16.2 C 5.24 g/m*3 16.2 C 16.1 km/h
509 10-04-2019 18:20:00 16.1 C 5.21 g/m*3 16.1 C 17.7 km/h
510 10-04-2019 18:25:00 16.1 C 5.07 g/m*3 16.1 C 14.5 km/h
511 10-04-2019 18:30:00 15.9 C 5.01 g/m*3 15.9 C 12.9 km/h
512 10-04-2019 18:35:00 15.8 C 5.12 g/m*3 15.8 C 11.3 km/h
513 10-04-2019 18:40:00 15.8 C 5.12 g/m*3 15.8 C 16.1 km/h
514 10-04-2019 18:45:00 15.6 C 5.19 g/m*3 15.6 C 16.1 km/h
515 10-04-2019 18:50:00 15.6 C 5.05 g/m*3 15.6 C 11.3 km/h
516 10-04-2019 18:55:00 15.4 C 4.99 g/m*3 15.4 C 17.7 km/h
517 10-04-2019 19:00:00 15.3 C 4.96 g/m*3 15.3 C 14.5 km/h
518 10-04-2019 19:05:00 15.3 C 5.22 g/m*3 15.3 C 19.3 km/h
519 10-04-2019 19:10:00 15.2 C 5.19 g/m*3 15.2 C 11.3 km/h
520 10-04-2019 19:15:00 14.9 C 5.23 g/m*3 14.9 C 16.1 km/h
521 10-04-2019 19:20:00 14.7 C 5.16 g/m*3 14.7 C 16.1 km/h
522 10-04-2019 19:25:00 14.4 C 5.19 g/m*3 14.4 C 17.7 km/h
523 10-04-2019 19:30:00 14.2 C 5.37 g/m*3 14.2 C 14.5 km/h
524 10-04-2019 19:35:00 14.1 C 5.34 g/m*3 14.1 C 16.1 km/h
525 10-04-2019 19:40:00 13.9 C 5.39 g/m*3 13.9 C 16.1 km/h
Sensor: Nr:Datum:Temp:Abs-Feuchte:Windchill:Wind:
Aussen-T/F 526 10-04-2019 19:45:00 13.8 C 5.36 g/m*3 13.8 C 14.5 km/h
527 10-04-2019 19:50:00 13.6 C 5.3 g/m*3 13.6 C 14.5 km/h
528 10-04-2019 19:55:00 13.4 C 5.58 g/m*3 13.4 C 8.1 km/h
529 10-04-2019 20:00:00 13.2 C 5.51 g/m*3 13.2 C 9.7 km/h
530 10-04-2019 20:05:00 12.9 C 5.75 g/m*3 12.9 C 4.8 km/h
531 10-04-2019 20:10:00 12.6 C 5.86 g/m*3 12.6 C 3.2 km/h
532 10-04-2019 20:15:00 12.1 C 5.79 g/m*3 12.1 C 3.2 km/h
533 10-04-2019 20:20:00 11.7 C 5.86 g/m*3 11.7 C 1.6 km/h
534 10-04-2019 20:25:00 11.3 C 5.81 g/m*3 11.3 C 0 km/h
535 10-04-2019 20:30:00 11 C 5.61 g/m*3 11 C 3.2 km/h
536 10-04-2019 20:35:00 10.8 C 5.93 g/m*3 10.8 C 0 km/h
537 10-04-2019 20:40:00 10.5 C 5.92 g/m*3 10.5 C 4.8 km/h
538 10-04-2019 20:45:00 10.2 C 5.8 g/m*3 10.2 C 0 km/h
539 10-04-2019 20:50:00 9.9 C 5.79 g/m*3 9.9 C 4.8 km/h
540 10-04-2019 20:55:00 9.9 C 5.79 g/m*3 9.9 C 3.2 km/h
541 10-04-2019 21:00:00 9.8 C 5.94 g/m*3 9.8 C 3.2 km/h
542 10-04-2019 21:05:00 9.6 C 5.77 g/m*3 9.6 C 0 km/h
543 10-04-2019 21:10:00 9.4 C 5.79 g/m*3 9.4 C 1.6 km/h
544 10-04-2019 21:15:00 9.3 C 5.75 g/m*3 9.3 C 4.8 km/h
545 10-04-2019 21:20:00 9.2 C 5.8 g/m*3 9.2 C 1.6 km/h
546 10-04-2019 21:25:00 9.1 C 5.94 g/m*3 9.1 C 3.2 km/h
547 10-04-2019 21:30:00 8.8 C 5.92 g/m*3 8.8 C 0 km/h
548 10-04-2019 21:35:00 8.6 C 6.02 g/m*3 8.6 C 3.2 km/h
549 10-04-2019 21:40:00 8.4 C 5.85 g/m*3 8.4 C 1.6 km/h
550 10-04-2019 21:45:00 8.3 C 5.9 g/m*3 8.3 C 1.6 km/h
Sensor: Nr:Datum:Temp:Abs-Feuchte:Windchill:Wind:
Aussen-T/F 551 10-04-2019 21:50:00 8.2 C 5.86 g/m*3 8.2 C 3.2 km/h
552 10-04-2019 21:55:00 8.1 C 5.91 g/m*3 8.1 C 1.6 km/h
553 10-04-2019 22:00:00 8 C 5.87 g/m*3 8 C 1.6 km/h
554 10-04-2019 22:05:00 7.9 C 5.91 g/m*3 7.9 C 1.6 km/h
555 10-04-2019 22:10:00 7.8 C 5.88 g/m*3 7.8 C 0 km/h
556 10-04-2019 22:15:00 7.6 C 5.88 g/m*3 7.6 C 1.6 km/h
557 10-04-2019 22:20:00 7.5 C 5.84 g/m*3 7.5 C 0 km/h
558 10-04-2019 22:25:00 7.4 C 5.81 g/m*3 7.4 C 0 km/h
559 10-04-2019 22:30:00 7.3 C 5.77 g/m*3 7.3 C 0 km/h
560 10-04-2019 22:35:00 7.2 C 5.73 g/m*3 7.2 C 0 km/h
561 10-04-2019 22:40:00 7.1 C 5.69 g/m*3 7.1 C 0 km/h
562 10-04-2019 22:45:00 7 C 5.81 g/m*3 7 C 0 km/h
563 10-04-2019 22:50:00 6.9 C 5.77 g/m*3 6.9 C 0 km/h
564 10-04-2019 22:55:00 6.9 C 5.77 g/m*3 6.9 C 0 km/h
565 10-04-2019 23:00:00 6.8 C 5.81 g/m*3 6.8 C 0 km/h
566 10-04-2019 23:05:00 6.7 C 5.7 g/m*3 6.7 C 0 km/h
567 10-04-2019 23:10:00 6.6 C 5.74 g/m*3 6.6 C 1.6 km/h
568 10-04-2019 23:15:00 6.6 C 5.74 g/m*3 6.6 C 1.6 km/h
569 10-04-2019 23:20:00 6.5 C 5.7 g/m*3 6.5 C 3.2 km/h
570 10-04-2019 23:25:00 6.5 C 5.7 g/m*3 6.5 C 1.6 km/h
571 10-04-2019 23:30:00 6.5 C 5.7 g/m*3 6.5 C 0 km/h
572 10-04-2019 23:35:00 6.4 C 5.74 g/m*3 6.4 C 0 km/h
573 10-04-2019 23:40:00 6.3 C 5.63 g/m*3 6.3 C 0 km/h
574 10-04-2019 23:45:00 6.3 C 5.7 g/m*3 6.3 C 0 km/h
575 10-04-2019 23:50:00 6.2 C 5.66 g/m*3 6.2 C 0 km/h
Sensor: Nr:Datum:Temp:Abs-Feuchte:Windchill:Wind:
Aussen-T/F 576 10-04-2019 23:55:00 6.2 C 5.66 g/m*3 6.2 C 0 km/h
577 11-04-2019 00:00:00 6.1 C 5.63 g/m*3 6.1 C 0 km/h
578 11-04-2019 00:05:00 6 C 5.59 g/m*3 6 C 0 km/h
579 11-04-2019 00:10:00 5.9 C 5.55 g/m*3 5.9 C 0 km/h
580 11-04-2019 00:15:00 5.9 C 5.55 g/m*3 5.9 C 0 km/h
581 11-04-2019 00:20:00 5.8 C 5.52 g/m*3 5.8 C 0 km/h
582 11-04-2019 00:25:00 5.7 C 5.55 g/m*3 5.7 C 0 km/h
583 11-04-2019 00:30:00 5.7 C 5.48 g/m*3 5.7 C 3.2 km/h
584 11-04-2019 00:35:00 5.6 C 5.51 g/m*3 5.6 C 0 km/h
585 11-04-2019 00:40:00 5.6 C 5.44 g/m*3 3.11 C 11.3 km/h
586 11-04-2019 00:45:00 5.6 C 5.51 g/m*3 5.6 C 0 km/h
587 11-04-2019 00:50:00 5.6 C 5.51 g/m*3 5.6 C 1.6 km/h
588 11-04-2019 00:55:00 5.5 C 5.41 g/m*3 5.5 C 0 km/h
589 11-04-2019 01:00:00 5.4 C 5.37 g/m*3 5.4 C 0 km/h
590 11-04-2019 01:05:00 5.3 C 5.34 g/m*3 5.3 C 0 km/h
591 11-04-2019 01:10:00 5.2 C 5.3 g/m*3 5.2 C 0 km/h
592 11-04-2019 01:15:00 5.2 C 5.37 g/m*3 5.2 C 0 km/h
593 11-04-2019 01:20:00 5.1 C 5.34 g/m*3 5.1 C 0 km/h
594 11-04-2019 01:25:00 5.1 C 5.34 g/m*3 5.1 C 0 km/h
595 11-04-2019 01:30:00 4.9 C 5.33 g/m*3 4.9 C 0 km/h
596 11-04-2019 01:35:00 4.9 C 5.33 g/m*3 4.9 C 1.6 km/h
597 11-04-2019 01:40:00 4.9 C 5.27 g/m*3 4.9 C 1.6 km/h
598 11-04-2019 01:45:00 4.8 C 5.23 g/m*3 4.8 C 1.6 km/h
599 11-04-2019 01:50:00 4.8 C 5.23 g/m*3 4.8 C 0 km/h
600 11-04-2019 01:55:00 4.8 C 5.23 g/m*3 4.8 C 1.6 km/h
Sensor: Nr:Datum:Temp:Abs-Feuchte:Windchill:Wind:
Aussen-T/F 601 11-04-2019 02:00:00 4.7 C 5.2 g/m*3 4.7 C 3.2 km/h
602 11-04-2019 02:05:00 4.7 C 5.26 g/m*3 4.7 C 0 km/h
603 11-04-2019 02:10:00 4.6 C 5.16 g/m*3 4.6 C 3.2 km/h
604 11-04-2019 02:15:00 4.6 C 5.16 g/m*3 4.6 C 0 km/h
605 11-04-2019 02:20:00 4.4 C 5.16 g/m*3 4.4 C 3.2 km/h
606 11-04-2019 02:25:00 4.4 C 5.16 g/m*3 4.4 C 1.6 km/h
607 11-04-2019 02:30:00 4.3 C 5.12 g/m*3 4.3 C 0 km/h
608 11-04-2019 02:35:00 4.3 C 5.12 g/m*3 4.3 C 0 km/h
609 11-04-2019 02:40:00 4.3 C 5.12 g/m*3 4.3 C 3.2 km/h
610 11-04-2019 02:45:00 4.2 C 5.09 g/m*3 4.2 C 0 km/h
611 11-04-2019 02:50:00 4.2 C 5.09 g/m*3 4.2 C 0 km/h
612 11-04-2019 02:55:00 4.1 C 5.12 g/m*3 4.1 C 0 km/h
613 11-04-2019 03:00:00 4.1 C 5.06 g/m*3 4.1 C 0 km/h
614 11-04-2019 03:05:00 4.1 C 5.06 g/m*3 4.1 C 0 km/h
615 11-04-2019 03:10:00 4.1 C 5.06 g/m*3 4.1 C 0 km/h
616 11-04-2019 03:15:00 4.1 C 5.06 g/m*3 4.1 C 0 km/h
617 11-04-2019 03:20:00 4 C 5.02 g/m*3 4 C 0 km/h
618 11-04-2019 03:25:00 3.9 C 4.99 g/m*3 3.9 C 0 km/h
619 11-04-2019 03:30:00 3.9 C 4.99 g/m*3 3.9 C 0 km/h
620 11-04-2019 03:35:00 3.8 C 4.96 g/m*3 3.8 C 0 km/h
621 11-04-2019 03:40:00 3.8 C 4.96 g/m*3 3.8 C 0 km/h
622 11-04-2019 03:45:00 3.6 C 4.89 g/m*3 3.6 C 0 km/h
623 11-04-2019 03:50:00 3.5 C 4.86 g/m*3 3.5 C 0 km/h
624 11-04-2019 03:55:00 3.4 C 4.89 g/m*3 3.4 C 0 km/h
625 11-04-2019 04:00:00 3.3 C 4.85 g/m*3 3.3 C 0 km/h
Sensor: Nr:Datum:Temp:Abs-Feuchte:Windchill:Wind:
Aussen-T/F 626 11-04-2019 04:05:00 3.3 C 4.85 g/m*3 3.3 C 0 km/h
627 11-04-2019 04:10:00 3.2 C 4.82 g/m*3 3.2 C 0 km/h
628 11-04-2019 04:15:00 3.1 C 4.79 g/m*3 3.1 C 0 km/h
629 11-04-2019 04:20:00 2.9 C 4.72 g/m*3 2.9 C 0 km/h
630 11-04-2019 04:25:00 2.8 C 4.75 g/m*3 2.8 C 0 km/h
631 11-04-2019 04:30:00 2.8 C 4.75 g/m*3 2.8 C 0 km/h
632 11-04-2019 04:35:00 2.7 C 4.72 g/m*3 2.7 C 0 km/h
633 11-04-2019 04:40:00 2.7 C 4.72 g/m*3 2.7 C 0 km/h
634 11-04-2019 04:45:00 2.7 C 4.72 g/m*3 2.7 C 0 km/h
635 11-04-2019 04:50:00 2.7 C 4.72 g/m*3 2.7 C 0 km/h
636 11-04-2019 04:55:00 2.6 C 4.69 g/m*3 2.6 C 0 km/h
637 11-04-2019 05:00:00 2.6 C 4.69 g/m*3 2.6 C 0 km/h
638 11-04-2019 05:05:00 2.5 C 4.66 g/m*3 2.5 C 0 km/h
639 11-04-2019 05:10:00 2.4 C 4.62 g/m*3 2.4 C 0 km/h
640 11-04-2019 05:15:00 2.4 C 4.68 g/m*3 2.4 C 0 km/h
641 11-04-2019 05:20:00 2.3 C 4.65 g/m*3 2.3 C 0 km/h
642 11-04-2019 05:25:00 2.3 C 4.65 g/m*3 2.3 C 0 km/h
643 11-04-2019 05:30:00 2.3 C 4.65 g/m*3 2.3 C 0 km/h
644 11-04-2019 05:35:00 2.3 C 4.65 g/m*3 2.3 C 3.2 km/h
645 11-04-2019 05:40:00 2.2 C 4.62 g/m*3 2.2 C 0 km/h
646 11-04-2019 05:45:00 2.2 C 4.62 g/m*3 2.2 C 0 km/h
647 11-04-2019 05:50:00 2.1 C 4.59 g/m*3 2.1 C 0 km/h
648 11-04-2019 05:55:00 2.1 C 4.59 g/m*3 2.1 C 0 km/h
649 11-04-2019 06:00:00 2 C 4.56 g/m*3 2 C 0 km/h
650 11-04-2019 06:05:00 2 C 4.56 g/m*3 2 C 0 km/h
Sensor: Nr:Datum:Temp:Abs-Feuchte:Windchill:Wind:
Aussen-T/F 651 11-04-2019 06:10:00 1.9 C 4.58 g/m*3 1.9 C 0 km/h
652 11-04-2019 06:15:00 1.8 C 4.55 g/m*3 1.8 C 0 km/h
653 11-04-2019 06:20:00 1.8 C 4.55 g/m*3 1.8 C 0 km/h
654 11-04-2019 06:25:00 1.7 C 4.52 g/m*3 1.7 C 0 km/h
655 11-04-2019 06:30:00 1.6 C 4.54 g/m*3 1.6 C 0 km/h
656 11-04-2019 06:35:00 1.6 C 4.54 g/m*3 1.6 C 0 km/h
657 11-04-2019 06:40:00 1.6 C 4.54 g/m*3 1.6 C 0 km/h
658 11-04-2019 06:45:00 1.6 C 4.54 g/m*3 1.6 C 0 km/h
659 11-04-2019 06:50:00 1.5 C 4.51 g/m*3 1.5 C 0 km/h
660 11-04-2019 06:55:00 1.5 C 4.51 g/m*3 1.5 C 0 km/h
661 11-04-2019 07:00:00 1.4 C 4.48 g/m*3 1.4 C 0 km/h
662 11-04-2019 07:05:00 1.3 C 4.45 g/m*3 1.3 C 0 km/h
663 11-04-2019 07:10:00 1.3 C 4.45 g/m*3 1.3 C 0 km/h
664 11-04-2019 07:15:00 1.2 C 4.47 g/m*3 1.2 C 0 km/h
665 11-04-2019 07:20:00 1.2 C 4.47 g/m*3 1.2 C 0 km/h
666 11-04-2019 07:25:00 1.2 C 4.47 g/m*3 1.2 C 0 km/h
667 11-04-2019 07:30:00 1.2 C 4.53 g/m*3 1.2 C 0 km/h
668 11-04-2019 07:35:00 1.1 C 4.49 g/m*3 1.1 C 0 km/h
669 11-04-2019 07:40:00 1.1 C 4.49 g/m*3 1.1 C 0 km/h
670 11-04-2019 07:45:00 1.2 C 4.53 g/m*3 1.2 C 0 km/h
671 11-04-2019 07:50:00 1.2 C 4.53 g/m*3 1.2 C 0 km/h
672 11-04-2019 07:55:00 1.2 C 4.53 g/m*3 1.2 C 0 km/h
673 11-04-2019 08:00:00 1.3 C 4.56 g/m*3 1.3 C 0 km/h
674 11-04-2019 08:05:00 1.4 C 4.59 g/m*3 1.4 C 0 km/h
675 11-04-2019 08:10:00 1.5 C 4.62 g/m*3 1.5 C 0 km/h
Sensor: Nr:Datum:Temp:Abs-Feuchte:Windchill:Wind:
Aussen-T/F 676 11-04-2019 08:15:00 1.6 C 4.65 g/m*3 1.6 C 0 km/h
677 11-04-2019 08:20:00 1.7 C 4.68 g/m*3 1.7 C 0 km/h
678 11-04-2019 08:25:00 1.8 C 4.66 g/m*3 1.8 C 0 km/h
679 11-04-2019 08:30:00 1.8 C 4.66 g/m*3 1.8 C 0 km/h
680 11-04-2019 08:35:00 1.9 C 4.69 g/m*3 1.9 C 0 km/h
681 11-04-2019 08:40:00 2 C 4.78 g/m*3 2 C 0 km/h
682 11-04-2019 08:45:00 2.1 C 4.76 g/m*3 2.1 C 0 km/h
683 11-04-2019 08:50:00 2.2 C 4.79 g/m*3 2.2 C 0 km/h
684 11-04-2019 08:55:00 2.3 C 4.82 g/m*3 2.3 C 0 km/h
685 11-04-2019 09:00:00 2.4 C 4.85 g/m*3 2.4 C 0 km/h
686 11-04-2019 09:05:00 2.6 C 4.92 g/m*3 2.6 C 0 km/h
687 11-04-2019 09:10:00 2.8 C 4.99 g/m*3 2.8 C 1.6 km/h
688 11-04-2019 09:15:00 3 C 4.93 g/m*3 3 C 0 km/h
689 11-04-2019 09:20:00 3.3 C 4.85 g/m*3 1.63 C 6.4 km/h
690 11-04-2019 09:25:00 3.8 C 4.83 g/m*3 2.21 C 6.4 km/h
691 11-04-2019 09:30:00 4.2 C 4.83 g/m*3 2.67 C 6.4 km/h
692 11-04-2019 09:35:00 4.5 C 4.86 g/m*3 2.52 C 8.1 km/h
693 11-04-2019 09:40:00 4.7 C 4.93 g/m*3 4.7 C 1.6 km/h
694 11-04-2019 09:45:00 4.9 C 4.93 g/m*3 2.61 C 9.7 km/h
695 11-04-2019 09:50:00 5.2 C 4.61 g/m*3 2.63 C 11.3 km/h
696 11-04-2019 09:55:00 5.4 C 5.02 g/m*3 5.4 C 4.8 km/h
697 11-04-2019 10:00:00 5.6 C 4.74 g/m*3 3.81 C 8.1 km/h
698 11-04-2019 10:05:00 5.8 C 4.58 g/m*3 3.36 C 11.3 km/h
699 11-04-2019 10:10:00 6.2 C 4.41 g/m*3 3.84 C 11.3 km/h
700 11-04-2019 10:15:00 6.3 C 4.81 g/m*3 4.64 C 8.1 km/h
Sensor: Nr:Datum:Temp:Abs-Feuchte:Windchill:Wind:
Aussen-T/F 701 11-04-2019 10:20:00 6.4 C 4.4 g/m*3 2.91 C 19.3 km/h
702 11-04-2019 10:25:00 6.8 C 4.36 g/m*3 3.42 C 19.3 km/h
703 11-04-2019 10:30:00 7 C 4.34 g/m*3 3.49 C 20.9 km/h
704 11-04-2019 10:35:00 7.1 C 4.37 g/m*3 3.62 C 20.9 km/h
705 11-04-2019 10:40:00 7.3 C 4.27 g/m*3 5.47 C 9.7 km/h
706 11-04-2019 10:45:00 7.4 C 4.21 g/m*3 4.17 C 19.3 km/h
707 11-04-2019 10:50:00 7.6 C 4.27 g/m*3 4.42 C 19.3 km/h
708 11-04-2019 10:55:00 7.7 C 4.22 g/m*3 5.38 C 12.9 km/h
709 11-04-2019 11:00:00 7.8 C 4.33 g/m*3 5.06 C 16.1 km/h
710 11-04-2019 11:05:00 7.8 C 4.08 g/m*3 5.27 C 14.5 km/h
711 11-04-2019 11:10:00 7.8 C 4.16 g/m*3 4.86 C 17.7 km/h
712 11-04-2019 11:15:00 7.9 C 4.11 g/m*3 4.8 C 19.3 km/h
713 11-04-2019 11:20:00 7.9 C 4.11 g/m*3 5.63 C 12.9 km/h
714 11-04-2019 11:25:00 8.1 C 4.33 g/m*3 5.64 C 14.5 km/h
715 11-04-2019 11:30:00 8.2 C 4.27 g/m*3 5.55 C 16.1 km/h
716 11-04-2019 11:35:00 8.4 C 4.16 g/m*3 5.61 C 17.7 km/h
717 11-04-2019 11:40:00 8.4 C 4.07 g/m*3 5.27 C 20.9 km/h
718 11-04-2019 11:45:00 8.3 C 3.96 g/m*3 4.56 C 27.4 km/h
719 11-04-2019 11:50:00 8.3 C 3.96 g/m*3 4.84 C 24.1 km/h
720 11-04-2019 11:55:00 8.3 C 4.13 g/m*3 6.37 C 11.3 km/h
721 11-04-2019 12:00:00 8.4 C 3.99 g/m*3 6.24 C 12.9 km/h
722 11-04-2019 12:05:00 8.5 C 4.1 g/m*3 6.9 C 9.7 km/h
723 11-04-2019 12:10:00 8.7 C 4.15 g/m*3 6.17 C 16.1 km/h
724 11-04-2019 12:15:00 8.7 C 4.15 g/m*3 6.38 C 14.5 km/h
725 11-04-2019 12:20:00 8.9 C 4.2 g/m*3 6.42 C 16.1 km/h
Sensor: Nr:Datum:Temp:Abs-Feuchte:Windchill:Wind:
Aussen-T/F 726 11-04-2019 12:25:00 9 C 4.14 g/m*3 6.36 C 17.7 km/h
727 11-04-2019 12:30:00 9 C 4.06 g/m*3 6.36 C 17.7 km/h
728 11-04-2019 12:35:00 9 C 3.88 g/m*3 6.36 C 17.7 km/h
729 11-04-2019 12:40:00 9.1 C 3.9 g/m*3 6.31 C 19.3 km/h
730 11-04-2019 12:45:00 9.2 C 3.93 g/m*3 5.99 C 24.1 km/h
731 11-04-2019 12:50:00 9.2 C 3.93 g/m*3 7.46 C 11.3 km/h
732 11-04-2019 12:55:00 9.3 C 3.86 g/m*3 6.56 C 19.3 km/h
733 11-04-2019 13:00:00 9.3 C 3.86 g/m*3 6.92 C 16.1 km/h
734 11-04-2019 13:05:00 9.4 C 3.89 g/m*3 7.24 C 14.5 km/h
735 11-04-2019 13:10:00 9.6 C 4.03 g/m*3 7.11 C 17.7 km/h
736 11-04-2019 13:15:00 9.6 C 4.03 g/m*3 6.94 C 19.3 km/h
737 11-04-2019 13:20:00 9.7 C 4.06 g/m*3 7.82 C 12.9 km/h
738 11-04-2019 13:25:00 9.8 C 4.08 g/m*3 8.18 C 11.3 km/h
739 11-04-2019 13:30:00 9.9 C 4.11 g/m*3 8.56 C 9.7 km/h
740 11-04-2019 13:35:00 10.1 C 4.07 g/m*3 7.91 C 16.1 km/h
741 11-04-2019 13:40:00 10.2 C 4.09 g/m*3 8.03 C 16.1 km/h
742 11-04-2019 13:45:00 10.2 C 4.09 g/m*3 8.66 C 11.3 km/h
743 11-04-2019 13:50:00 10.3 C 4.12 g/m*3 9.34 C 8.1 km/h
744 11-04-2019 13:55:00 10.4 C 4.14 g/m*3 8.11 C 17.7 km/h
745 11-04-2019 14:00:00 10.4 C 4.05 g/m*3 8.47 C 14.5 km/h
746 11-04-2019 14:05:00 10.6 C 4.2 g/m*3 8.36 C 17.7 km/h
747 11-04-2019 14:10:00 10.7 C 4.03 g/m*3 8.65 C 16.1 km/h
748 11-04-2019 14:15:00 10.8 C 4.05 g/m*3 8.96 C 14.5 km/h
749 11-04-2019 14:20:00 10.8 C 3.95 g/m*3 8.17 C 22.5 km/h
750 11-04-2019 14:25:00 10.9 C 4.08 g/m*3 8.73 C 17.7 km/h
Sensor: Nr:Datum:Temp:Abs-Feuchte:Windchill:Wind:
Aussen-T/F 751 11-04-2019 14:30:00 10.9 C 4.08 g/m*3 9.08 C 14.5 km/h
752 11-04-2019 14:35:00 11.1 C 4.23 g/m*3 11.1 C 8.1 km/h
753 11-04-2019 14:40:00 11.3 C 3.98 g/m*3 11.3 C 20.9 km/h
754 11-04-2019 14:45:00 11.4 C 4.11 g/m*3 11.4 C 12.9 km/h
755 11-04-2019 14:50:00 11.6 C 4.26 g/m*3 11.6 C 20.9 km/h
756 11-04-2019 14:55:00 11.7 C 4.08 g/m*3 11.7 C 17.7 km/h
757 11-04-2019 15:00:00 11.8 C 4.1 g/m*3 11.8 C 17.7 km/h
758 11-04-2019 15:05:00 11.8 C 4.1 g/m*3 11.8 C 17.7 km/h
759 11-04-2019 15:10:00 11.9 C 4.24 g/m*3 11.9 C 19.3 km/h
760 11-04-2019 15:15:00 11.8 C 4.1 g/m*3 11.8 C 17.7 km/h
761 11-04-2019 15:20:00 11.9 C 4.02 g/m*3 11.9 C 16.1 km/h
762 11-04-2019 15:25:00 11.9 C 4.13 g/m*3 11.9 C 14.5 km/h
763 11-04-2019 15:30:00 11.9 C 4.24 g/m*3 11.9 C 14.5 km/h
764 11-04-2019 15:35:00 12.1 C 4.18 g/m*3 12.1 C 20.9 km/h
765 11-04-2019 15:40:00 12.2 C 4.21 g/m*3 12.2 C 16.1 km/h
766 11-04-2019 15:45:00 12.2 C 4.1 g/m*3 12.2 C 27.4 km/h
767 11-04-2019 15:50:00 12.2 C 4.1 g/m*3 12.2 C 12.9 km/h
768 11-04-2019 15:55:00 12.3 C 4.02 g/m*3 12.3 C 11.3 km/h
769 11-04-2019 16:00:00 12.4 C 4.04 g/m*3 12.4 C 20.9 km/h
770 11-04-2019 16:05:00 12.6 C 4.09 g/m*3 12.6 C 12.9 km/h
771 11-04-2019 16:10:00 12.6 C 4.09 g/m*3 12.6 C 16.1 km/h
772 11-04-2019 16:15:00 12.6 C 3.98 g/m*3 12.6 C 16.1 km/h
773 11-04-2019 16:20:00 12.6 C 4.09 g/m*3 12.6 C 16.1 km/h
774 11-04-2019 16:25:00 12.6 C 3.98 g/m*3 12.6 C 22.5 km/h
775 11-04-2019 16:30:00 12.6 C 4.09 g/m*3 12.6 C 14.5 km/h
Sensor: Nr:Datum:Temp:Abs-Feuchte:Windchill:Wind:
Aussen-T/F 776 11-04-2019 16:35:00 12.9 C 4.17 g/m*3 12.9 C 14.5 km/h
777 11-04-2019 16:40:00 12.9 C 3.94 g/m*3 12.9 C 16.1 km/h
778 11-04-2019 16:45:00 13.1 C 3.99 g/m*3 13.1 C 16.1 km/h
779 11-04-2019 16:50:00 13.2 C 4.02 g/m*3 13.2 C 16.1 km/h
780 11-04-2019 16:55:00 13.1 C 3.99 g/m*3 13.1 C 14.5 km/h
781 11-04-2019 17:00:00 13.1 C 4.11 g/m*3 13.1 C 12.9 km/h
782 11-04-2019 17:05:00 13.3 C 4.04 g/m*3 13.3 C 19.3 km/h
783 11-04-2019 17:10:00 13.3 C 3.93 g/m*3 13.3 C 14.5 km/h
784 11-04-2019 17:15:00 13.3 C 4.04 g/m*3 13.3 C 19.3 km/h
785 11-04-2019 17:20:00 13.2 C 3.9 g/m*3 13.2 C 16.1 km/h
786 11-04-2019 17:25:00 13.3 C 4.04 g/m*3 13.3 C 12.9 km/h
787 11-04-2019 17:30:00 13.4 C 4.07 g/m*3 13.4 C 14.5 km/h
788 11-04-2019 17:35:00 13.5 C 3.98 g/m*3 13.5 C 9.7 km/h
789 11-04-2019 17:40:00 13.4 C 4.07 g/m*3 13.4 C 12.9 km/h
790 11-04-2019 17:45:00 13.6 C 4.12 g/m*3 13.6 C 14.5 km/h
791 11-04-2019 17:50:00 13.2 C 3.9 g/m*3 13.2 C 16.1 km/h
792 11-04-2019 17:55:00 13.2 C 4.02 g/m*3 13.2 C 14.5 km/h
793 11-04-2019 18:00:00 13.4 C 4.07 g/m*3 13.4 C 9.7 km/h
794 11-04-2019 18:05:00 13.3 C 3.93 g/m*3 13.3 C 9.7 km/h
795 11-04-2019 18:10:00 13.3 C 3.93 g/m*3 13.3 C 17.7 km/h
796 11-04-2019 18:15:00 13 C 3.97 g/m*3 13 C 14.5 km/h
797 11-04-2019 18:20:00 13.1 C 3.99 g/m*3 13.1 C 12.9 km/h
798 11-04-2019 18:25:00 12.8 C 3.92 g/m*3 12.8 C 12.9 km/h
799 11-04-2019 18:30:00 12.7 C 3.9 g/m*3 12.7 C 16.1 km/h
800 11-04-2019 18:35:00 12.7 C 4.01 g/m*3 12.7 C 12.9 km/h
Sensor: Nr:Datum:Temp:Abs-Feuchte:Windchill:Wind:
Aussen-T/F 801 11-04-2019 18:40:00 12.8 C 4.03 g/m*3 12.8 C 6.4 km/h
802 11-04-2019 18:45:00 13.1 C 4.11 g/m*3 13.1 C 4.8 km/h
803 11-04-2019 18:50:00 13.1 C 3.99 g/m*3 13.1 C 11.3 km/h
804 11-04-2019 18:55:00 13 C 4.08 g/m*3 13 C 8.1 km/h
805 11-04-2019 19:00:00 12.9 C 3.94 g/m*3 12.9 C 9.7 km/h
806 11-04-2019 19:05:00 12.7 C 4.01 g/m*3 12.7 C 12.9 km/h
807 11-04-2019 19:10:00 12.6 C 3.98 g/m*3 12.6 C 4.8 km/h
808 11-04-2019 19:15:00 12.6 C 4.09 g/m*3 12.6 C 9.7 km/h
809 11-04-2019 19:20:00 12.3 C 3.91 g/m*3 12.3 C 9.7 km/h
810 11-04-2019 19:25:00 12.1 C 4.18 g/m*3 12.1 C 11.3 km/h
811 11-04-2019 19:30:00 11.8 C 4 g/m*3 11.8 C 8.1 km/h
812 11-04-2019 19:35:00 11.7 C 3.97 g/m*3 11.7 C 6.4 km/h
813 11-04-2019 19:40:00 11.5 C 4.34 g/m*3 11.5 C 3.2 km/h
814 11-04-2019 19:45:00 11.3 C 3.98 g/m*3 11.3 C 8.1 km/h
815 11-04-2019 19:50:00 11.1 C 4.13 g/m*3 11.1 C 4.8 km/h
816 11-04-2019 19:55:00 10.9 C 4.08 g/m*3 10.9 C 3.2 km/h
817 11-04-2019 20:00:00 10.7 C 4.03 g/m*3 10.7 C 3.2 km/h
818 11-04-2019 20:05:00 10.5 C 4.07 g/m*3 10.5 C 3.2 km/h
819 11-04-2019 20:10:00 10.2 C 4.09 g/m*3 10.2 C 3.2 km/h
820 11-04-2019 20:15:00 9.9 C 4.2 g/m*3 9.9 C 1.6 km/h
821 11-04-2019 20:20:00 9.6 C 4.31 g/m*3 9.6 C 0 km/h
822 11-04-2019 20:25:00 9.2 C 4.29 g/m*3 9.2 C 1.6 km/h
823 11-04-2019 20:30:00 8.8 C 4.44 g/m*3 8.8 C 1.6 km/h
824 11-04-2019 20:35:00 8.3 C 4.38 g/m*3 8.3 C 3.2 km/h
825 11-04-2019 20:40:00 7.9 C 4.52 g/m*3 7.9 C 3.2 km/h
Sensor: Nr:Datum:Temp:Abs-Feuchte:Windchill:Wind:
Aussen-T/F 826 11-04-2019 20:45:00 7.7 C 4.54 g/m*3 7.7 C 3.2 km/h
827 11-04-2019 20:50:00 7.4 C 4.53 g/m*3 7.4 C 3.2 km/h
828 11-04-2019 20:55:00 7.2 C 4.63 g/m*3 7.2 C 1.6 km/h
829 11-04-2019 21:00:00 7 C 4.65 g/m*3 7 C 0 km/h
830 11-04-2019 21:05:00 6.8 C 4.59 g/m*3 6.8 C 0 km/h
831 11-04-2019 21:10:00 6.6 C 4.6 g/m*3 6.6 C 3.2 km/h
832 11-04-2019 21:15:00 6.5 C 4.57 g/m*3 6.5 C 3.2 km/h
833 11-04-2019 21:20:00 6.3 C 4.52 g/m*3 6.3 C 3.2 km/h
834 11-04-2019 21:25:00 6.2 C 4.49 g/m*3 6.2 C 4.8 km/h
835 11-04-2019 21:30:00 6.1 C 4.53 g/m*3 6.1 C 4.8 km/h
836 11-04-2019 21:35:00 6 C 4.5 g/m*3 6 C 0 km/h
837 11-04-2019 21:40:00 5.9 C 4.47 g/m*3 5.9 C 3.2 km/h
838 11-04-2019 21:45:00 5.8 C 4.44 g/m*3 5.8 C 3.2 km/h
839 11-04-2019 21:50:00 5.8 C 4.44 g/m*3 5.8 C 1.6 km/h
840 11-04-2019 21:55:00 5.7 C 4.48 g/m*3 5.7 C 0 km/h
841 11-04-2019 22:00:00 5.7 C 4.48 g/m*3 5.7 C 0 km/h
842 11-04-2019 22:05:00 5.6 C 4.45 g/m*3 5.6 C 0 km/h
843 11-04-2019 22:10:00 5.6 C 4.45 g/m*3 5.6 C 3.2 km/h
844 11-04-2019 22:15:00 5.4 C 4.4 g/m*3 5.4 C 3.2 km/h
845 11-04-2019 22:20:00 5.4 C 4.47 g/m*3 5.4 C 1.6 km/h
846 11-04-2019 22:25:00 5.3 C 4.44 g/m*3 5.3 C 3.2 km/h
847 11-04-2019 22:30:00 5.3 C 4.51 g/m*3 5.3 C 3.2 km/h
848 11-04-2019 22:35:00 5.2 C 4.41 g/m*3 5.2 C 4.8 km/h
849 11-04-2019 22:40:00 5.2 C 4.48 g/m*3 5.2 C 1.6 km/h
850 11-04-2019 22:45:00 5.1 C 4.58 g/m*3 5.1 C 0 km/h
Sensor: Nr:Datum:Temp:Abs-Feuchte:Windchill:Wind:
Aussen-T/F 851 11-04-2019 22:50:00 5.1 C 4.51 g/m*3 5.1 C 3.2 km/h
852 11-04-2019 22:55:00 5.3 C 4.23 g/m*3 3.08 C 9.7 km/h
853 11-04-2019 23:00:00 5.6 C 4.24 g/m*3 3.11 C 11.3 km/h
854 11-04-2019 23:05:00 5.8 C 4.23 g/m*3 5.8 C 3.2 km/h
855 11-04-2019 23:10:00 5.8 C 4.37 g/m*3 5.8 C 1.6 km/h
856 11-04-2019 23:15:00 5.7 C 4.41 g/m*3 5.7 C 0 km/h
857 11-04-2019 23:20:00 5.8 C 4.08 g/m*3 3.68 C 9.7 km/h
858 11-04-2019 23:25:00 5.9 C 4.25 g/m*3 5.9 C 4.8 km/h
859 11-04-2019 23:30:00 5.8 C 4.37 g/m*3 5.8 C 1.6 km/h
860 11-04-2019 23:35:00 5.4 C 4.4 g/m*3 5.4 C 0 km/h
861 11-04-2019 23:40:00 5.2 C 4.2 g/m*3 3.82 C 6.4 km/h
862 11-04-2019 23:45:00 5.1 C 4.17 g/m*3 5.1 C 3.2 km/h
863 11-04-2019 23:50:00 4.9 C 4.19 g/m*3 4.9 C 1.6 km/h
864 11-04-2019 23:55:00 4.8 C 4.22 g/m*3 4.8 C 1.6 km/h

Legende:
   Min
   Max


Maximal/Minimal-Werte vom 09.04.2019 - 11.04.2019

Sensor Min Max Avg
Temp
(Aussen-T/F)
1.1 °C
11-04-2019  07:35:00
16.9 °C
10-04-2019  17:15:00
9.99 °C
Abs-Feuchte
(Aussen-T/F)
3.86 g/m*3
11-04-2019  12:55:00
10.97 g/m*3
09-04-2019  18:15:00
6.78 g/m*3
Windchill
(Aussen-T/F)
1.1 C
11-04-2019  07:35:00
16.9 C
10-04-2019  17:15:00
9.73 C

Die Daten stammen von einer Davis Vantage Pro 2 Wetter-Station und werden unter Linux mit der Software wview2wettercgi und aufbereitet. Alle Angaben erfolgen ohne Gewähr für ihre Vollständigkeit oder Richtigkeit.
Kontakt: Rainer Krienke krienke@uni-koblenz.de . Meine Webseiten an der Uni Koblenz oder privat.
Version: $Revision: 0.78 $